sensor_id;sensor_type;location;lat;lon;timestamp;P1;durP1;ratioP1;P2;durP2;ratioP2
13303;SDS011;6720;51.958;4.540;2023-05-14T00:01:07;32.10;;;26.60;;
13303;SDS011;6720;51.958;4.540;2023-05-14T00:03:32;31.37;;;26.70;;
13303;SDS011;6720;51.958;4.540;2023-05-14T00:05:58;33.33;;;26.47;;
13303;SDS011;6720;51.958;4.540;2023-05-14T00:08:23;31.00;;;27.13;;
13303;SDS011;6720;51.958;4.540;2023-05-14T00:10:49;31.13;;;26.77;;
13303;SDS011;6720;51.958;4.540;2023-05-14T00:13:14;29.87;;;26.70;;
13303;SDS011;6720;51.958;4.540;2023-05-14T00:15:40;29.87;;;26.43;;
13303;SDS011;6720;51.958;4.540;2023-05-14T00:18:05;29.37;;;26.10;;
13303;SDS011;6720;51.958;4.540;2023-05-14T00:20:31;28.60;;;25.27;;
13303;SDS011;6720;51.958;4.540;2023-05-14T00:22:56;30.10;;;25.43;;
13303;SDS011;6720;51.958;4.540;2023-05-14T00:25:22;28.40;;;25.37;;
13303;SDS011;6720;51.958;4.540;2023-05-14T00:27:47;30.20;;;25.30;;
13303;SDS011;6720;51.958;4.540;2023-05-14T00:30:13;30.27;;;23.93;;
13303;SDS011;6720;51.958;4.540;2023-05-14T00:32:38;28.30;;;24.63;;
13303;SDS011;6720;51.958;4.540;2023-05-14T00:35:03;29.67;;;24.23;;
13303;SDS011;6720;51.958;4.540;2023-05-14T00:37:29;32.30;;;24.60;;
13303;SDS011;6720;51.958;4.540;2023-05-14T00:39:55;30.00;;;24.83;;
13303;SDS011;6720;51.958;4.540;2023-05-14T00:42:20;28.13;;;25.10;;
13303;SDS011;6720;51.958;4.540;2023-05-14T00:44:46;32.70;;;24.67;;
13303;SDS011;6720;51.958;4.540;2023-05-14T00:47:11;30.30;;;23.87;;
13303;SDS011;6720;51.958;4.540;2023-05-14T00:49:37;27.00;;;23.43;;
13303;SDS011;6720;51.958;4.540;2023-05-14T00:52:04;27.30;;;24.40;;
13303;SDS011;6720;51.958;4.540;2023-05-14T00:54:30;28.30;;;24.53;;
13303;SDS011;6720;51.958;4.540;2023-05-14T00:56:56;29.27;;;24.40;;
13303;SDS011;6720;51.958;4.540;2023-05-14T00:59:22;26.70;;;23.80;;
13303;SDS011;6720;51.958;4.540;2023-05-14T01:01:47;28.10;;;23.37;;
13303;SDS011;6720;51.958;4.540;2023-05-14T01:04:13;31.33;;;24.40;;
13303;SDS011;6720;51.958;4.540;2023-05-14T01:11:46;29.37;;;24.70;;
13303;SDS011;6720;51.958;4.540;2023-05-14T01:14:23;26.47;;;23.47;;
13303;SDS011;6720;51.958;4.540;2023-05-14T01:16:58;31.03;;;24.20;;
13303;SDS011;6720;51.958;4.540;2023-05-14T01:19:35;30.27;;;24.67;;
13303;SDS011;6720;51.958;4.540;2023-05-14T01:22:04;26.67;;;23.87;;
13303;SDS011;6720;51.958;4.540;2023-05-14T01:24:29;29.47;;;24.53;;
13303;SDS011;6720;51.958;4.540;2023-05-14T01:26:56;29.60;;;24.27;;
13303;SDS011;6720;51.958;4.540;2023-05-14T01:29:37;26.67;;;23.77;;
13303;SDS011;6720;51.958;4.540;2023-05-14T01:32:06;26.57;;;23.77;;
13303;SDS011;6720;51.958;4.540;2023-05-14T01:34:32;30.27;;;24.63;;
13303;SDS011;6720;51.958;4.540;2023-05-14T01:36:59;27.40;;;23.87;;
13303;SDS011;6720;51.958;4.540;2023-05-14T01:39:25;28.07;;;23.30;;
13303;SDS011;6720;51.958;4.540;2023-05-14T01:41:51;29.07;;;23.97;;
13303;SDS011;6720;51.958;4.540;2023-05-14T01:44:18;29.53;;;24.20;;
13303;SDS011;6720;51.958;4.540;2023-05-14T01:46:43;28.60;;;24.23;;
13303;SDS011;6720;51.958;4.540;2023-05-14T01:49:21;28.17;;;23.13;;
13303;SDS011;6720;51.958;4.540;2023-05-14T01:52:20;26.03;;;23.33;;
13303;SDS011;6720;51.958;4.540;2023-05-14T01:55:08;30.93;;;22.77;;
13303;SDS011;6720;51.958;4.540;2023-05-14T01:57:39;32.10;;;23.40;;
13303;SDS011;6720;51.958;4.540;2023-05-14T02:00:05;27.37;;;23.30;;
13303;SDS011;6720;51.958;4.540;2023-05-14T02:02:31;26.47;;;22.53;;
13303;SDS011;6720;51.958;4.540;2023-05-14T02:04:57;25.43;;;21.70;;
13303;SDS011;6720;51.958;4.540;2023-05-14T02:07:22;27.13;;;22.90;;
13303;SDS011;6720;51.958;4.540;2023-05-14T02:09:47;26.77;;;22.33;;
13303;SDS011;6720;51.958;4.540;2023-05-14T02:12:13;29.90;;;22.93;;
13303;SDS011;6720;51.958;4.540;2023-05-14T02:14:38;29.27;;;24.40;;
13303;SDS011;6720;51.958;4.540;2023-05-14T02:17:03;27.80;;;23.33;;
13303;SDS011;6720;51.958;4.540;2023-05-14T02:19:29;27.00;;;23.23;;
13303;SDS011;6720;51.958;4.540;2023-05-14T02:21:54;26.60;;;22.53;;
13303;SDS011;6720;51.958;4.540;2023-05-14T02:24:20;29.03;;;22.70;;
13303;SDS011;6720;51.958;4.540;2023-05-14T02:26:46;26.90;;;22.90;;
13303;SDS011;6720;51.958;4.540;2023-05-14T02:29:11;29.00;;;23.27;;
13303;SDS011;6720;51.958;4.540;2023-05-14T02:31:37;25.97;;;22.57;;
13303;SDS011;6720;51.958;4.540;2023-05-14T02:34:03;28.87;;;23.57;;
13303;SDS011;6720;51.958;4.540;2023-05-14T02:36:29;27.47;;;23.63;;
13303;SDS011;6720;51.958;4.540;2023-05-14T02:38:54;26.73;;;23.37;;
13303;SDS011;6720;51.958;4.540;2023-05-14T02:41:22;35.67;;;23.90;;
13303;SDS011;6720;51.958;4.540;2023-05-14T02:43:48;29.50;;;23.87;;
13303;SDS011;6720;51.958;4.540;2023-05-14T02:46:13;28.50;;;23.83;;
13303;SDS011;6720;51.958;4.540;2023-05-14T02:48:38;26.70;;;23.30;;
13303;SDS011;6720;51.958;4.540;2023-05-14T02:51:04;33.00;;;24.90;;
13303;SDS011;6720;51.958;4.540;2023-05-14T02:53:30;27.40;;;23.57;;
13303;SDS011;6720;51.958;4.540;2023-05-14T02:55:55;31.53;;;24.67;;
13303;SDS011;6720;51.958;4.540;2023-05-14T02:58:20;29.33;;;24.13;;
13303;SDS011;6720;51.958;4.540;2023-05-14T03:00:46;32.73;;;22.73;;
13303;SDS011;6720;51.958;4.540;2023-05-14T03:03:11;30.67;;;23.40;;
13303;SDS011;6720;51.958;4.540;2023-05-14T03:05:37;33.27;;;24.00;;
13303;SDS011;6720;51.958;4.540;2023-05-14T03:08:02;29.70;;;24.67;;
13303;SDS011;6720;51.958;4.540;2023-05-14T03:10:28;30.43;;;22.87;;
13303;SDS011;6720;51.958;4.540;2023-05-14T03:12:53;32.07;;;25.07;;
13303;SDS011;6720;51.958;4.540;2023-05-14T03:15:18;35.03;;;25.33;;
13303;SDS011;6720;51.958;4.540;2023-05-14T03:17:44;29.50;;;24.63;;
13303;SDS011;6720;51.958;4.540;2023-05-14T03:20:09;30.10;;;25.60;;
13303;SDS011;6720;51.958;4.540;2023-05-14T03:22:36;31.97;;;25.43;;
13303;SDS011;6720;51.958;4.540;2023-05-14T03:25:01;34.93;;;26.93;;
13303;SDS011;6720;51.958;4.540;2023-05-14T03:27:27;34.37;;;27.00;;
13303;SDS011;6720;51.958;4.540;2023-05-14T03:29:52;36.03;;;26.67;;
13303;SDS011;6720;51.958;4.540;2023-05-14T03:32:17;36.03;;;27.73;;
13303;SDS011;6720;51.958;4.540;2023-05-14T03:34:43;34.07;;;28.17;;
13303;SDS011;6720;51.958;4.540;2023-05-14T03:37:08;34.00;;;27.77;;
13303;SDS011;6720;51.958;4.540;2023-05-14T03:39:34;41.00;;;29.43;;
13303;SDS011;6720;51.958;4.540;2023-05-14T03:42:00;35.73;;;28.67;;
13303;SDS011;6720;51.958;4.540;2023-05-14T03:44:25;36.77;;;28.73;;
13303;SDS011;6720;51.958;4.540;2023-05-14T03:46:51;35.30;;;27.87;;
13303;SDS011;6720;51.958;4.540;2023-05-14T03:49:16;38.30;;;28.40;;
13303;SDS011;6720;51.958;4.540;2023-05-14T03:51:41;39.67;;;27.10;;
13303;SDS011;6720;51.958;4.540;2023-05-14T03:54:07;37.63;;;28.73;;
13303;SDS011;6720;51.958;4.540;2023-05-14T03:56:33;37.80;;;28.37;;
13303;SDS011;6720;51.958;4.540;2023-05-14T03:58:58;38.00;;;27.77;;
13303;SDS011;6720;51.958;4.540;2023-05-14T04:01:24;33.17;;;28.00;;
13303;SDS011;6720;51.958;4.540;2023-05-14T04:03:49;36.63;;;26.93;;
13303;SDS011;6720;51.958;4.540;2023-05-14T04:06:15;35.13;;;26.83;;
13303;SDS011;6720;51.958;4.540;2023-05-14T04:08:40;34.47;;;27.43;;
13303;SDS011;6720;51.958;4.540;2023-05-14T04:11:05;36.13;;;27.03;;
13303;SDS011;6720;51.958;4.540;2023-05-14T04:13:31;36.97;;;27.23;;
13303;SDS011;6720;51.958;4.540;2023-05-14T04:15:56;35.13;;;26.43;;
13303;SDS011;6720;51.958;4.540;2023-05-14T04:18:21;34.20;;;27.37;;
13303;SDS011;6720;51.958;4.540;2023-05-14T04:20:47;32.20;;;26.53;;
13303;SDS011;6720;51.958;4.540;2023-05-14T04:23:12;35.50;;;26.63;;
13303;SDS011;6720;51.958;4.540;2023-05-14T04:25:37;36.10;;;26.13;;
13303;SDS011;6720;51.958;4.540;2023-05-14T04:28:03;36.27;;;28.00;;
13303;SDS011;6720;51.958;4.540;2023-05-14T04:30:28;32.57;;;26.70;;
13303;SDS011;6720;51.958;4.540;2023-05-14T04:32:54;34.53;;;27.33;;
13303;SDS011;6720;51.958;4.540;2023-05-14T04:35:19;36.37;;;28.40;;
13303;SDS011;6720;51.958;4.540;2023-05-14T04:37:45;35.50;;;27.87;;
13303;SDS011;6720;51.958;4.540;2023-05-14T04:40:11;35.33;;;27.33;;
13303;SDS011;6720;51.958;4.540;2023-05-14T04:42:37;35.50;;;27.73;;
13303;SDS011;6720;51.958;4.540;2023-05-14T04:45:04;36.60;;;28.20;;
13303;SDS011;6720;51.958;4.540;2023-05-14T04:47:30;33.10;;;28.27;;
13303;SDS011;6720;51.958;4.540;2023-05-14T04:49:56;34.53;;;28.73;;
13303;SDS011;6720;51.958;4.540;2023-05-14T04:52:22;36.27;;;27.13;;
13303;SDS011;6720;51.958;4.540;2023-05-14T04:54:47;35.27;;;27.87;;
13303;SDS011;6720;51.958;4.540;2023-05-14T04:57:13;36.30;;;27.53;;
13303;SDS011;6720;51.958;4.540;2023-05-14T04:59:38;36.33;;;27.73;;
13303;SDS011;6720;51.958;4.540;2023-05-14T05:02:05;36.80;;;28.07;;
13303;SDS011;6720;51.958;4.540;2023-05-14T05:04:31;37.17;;;29.13;;
13303;SDS011;6720;51.958;4.540;2023-05-14T05:06:57;31.63;;;28.07;;
13303;SDS011;6720;51.958;4.540;2023-05-14T05:09:22;37.00;;;26.43;;
13303;SDS011;6720;51.958;4.540;2023-05-14T05:11:48;37.60;;;27.83;;
13303;SDS011;6720;51.958;4.540;2023-05-14T05:14:13;36.40;;;28.13;;
13303;SDS011;6720;51.958;4.540;2023-05-14T05:16:38;33.30;;;26.70;;
13303;SDS011;6720;51.958;4.540;2023-05-14T05:19:04;33.83;;;27.40;;
13303;SDS011;6720;51.958;4.540;2023-05-14T05:21:29;33.77;;;27.53;;
13303;SDS011;6720;51.958;4.540;2023-05-14T05:23:55;34.73;;;26.70;;
13303;SDS011;6720;51.958;4.540;2023-05-14T05:26:20;38.93;;;27.80;;
13303;SDS011;6720;51.958;4.540;2023-05-14T05:28:46;36.80;;;26.77;;
13303;SDS011;6720;51.958;4.540;2023-05-14T05:31:12;35.40;;;26.90;;
13303;SDS011;6720;51.958;4.540;2023-05-14T05:33:38;33.87;;;27.57;;
13303;SDS011;6720;51.958;4.540;2023-05-14T05:36:03;35.63;;;27.37;;
13303;SDS011;6720;51.958;4.540;2023-05-14T05:38:29;32.70;;;26.57;;
13303;SDS011;6720;51.958;4.540;2023-05-14T05:40:54;35.17;;;26.60;;
13303;SDS011;6720;51.958;4.540;2023-05-14T05:43:20;35.67;;;26.40;;
13303;SDS011;6720;51.958;4.540;2023-05-14T05:45:45;36.27;;;26.77;;
13303;SDS011;6720;51.958;4.540;2023-05-14T05:48:10;36.60;;;27.53;;
13303;SDS011;6720;51.958;4.540;2023-05-14T05:50:36;34.30;;;27.10;;
13303;SDS011;6720;51.958;4.540;2023-05-14T05:53:01;36.87;;;28.73;;
13303;SDS011;6720;51.958;4.540;2023-05-14T05:55:27;39.53;;;29.20;;
13303;SDS011;6720;51.958;4.540;2023-05-14T05:57:53;38.00;;;29.93;;
13303;SDS011;6720;51.958;4.540;2023-05-14T06:00:19;42.33;;;30.47;;
13303;SDS011;6720;51.958;4.540;2023-05-14T06:02:45;40.83;;;30.13;;
13303;SDS011;6720;51.958;4.540;2023-05-14T06:05:10;41.30;;;31.13;;
13303;SDS011;6720;51.958;4.540;2023-05-14T06:07:36;39.70;;;31.77;;
13303;SDS011;6720;51.958;4.540;2023-05-14T06:10:02;43.80;;;31.00;;
13303;SDS011;6720;51.958;4.540;2023-05-14T06:12:28;37.13;;;30.53;;
13303;SDS011;6720;51.958;4.540;2023-05-14T06:14:53;39.63;;;30.47;;
13303;SDS011;6720;51.958;4.540;2023-05-14T06:17:20;39.07;;;30.47;;
13303;SDS011;6720;51.958;4.540;2023-05-14T06:19:45;41.50;;;30.70;;
13303;SDS011;6720;51.958;4.540;2023-05-14T06:22:11;40.90;;;31.13;;
13303;SDS011;6720;51.958;4.540;2023-05-14T06:24:36;40.80;;;30.30;;
13303;SDS011;6720;51.958;4.540;2023-05-14T06:27:02;43.97;;;31.17;;
13303;SDS011;6720;51.958;4.540;2023-05-14T06:29:27;44.10;;;32.60;;
13303;SDS011;6720;51.958;4.540;2023-05-14T06:31:59;40.00;;;31.67;;
13303;SDS011;6720;51.958;4.540;2023-05-14T06:34:51;43.93;;;32.17;;
13303;SDS011;6720;51.958;4.540;2023-05-14T06:37:40;46.97;;;32.13;;
13303;SDS011;6720;51.958;4.540;2023-05-14T06:40:06;42.93;;;32.00;;
13303;SDS011;6720;51.958;4.540;2023-05-14T06:42:32;47.47;;;33.33;;
13303;SDS011;6720;51.958;4.540;2023-05-14T06:44:57;46.03;;;32.90;;
13303;SDS011;6720;51.958;4.540;2023-05-14T06:47:23;45.80;;;35.43;;
13303;SDS011;6720;51.958;4.540;2023-05-14T06:49:49;47.33;;;34.97;;
13303;SDS011;6720;51.958;4.540;2023-05-14T06:52:16;48.90;;;35.03;;
13303;SDS011;6720;51.958;4.540;2023-05-14T06:54:42;47.83;;;35.83;;
13303;SDS011;6720;51.958;4.540;2023-05-14T06:57:08;45.40;;;34.03;;
13303;SDS011;6720;51.958;4.540;2023-05-14T06:59:33;41.90;;;34.43;;
13303;SDS011;6720;51.958;4.540;2023-05-14T07:01:59;40.13;;;32.97;;
13303;SDS011;6720;51.958;4.540;2023-05-14T07:04:25;40.77;;;32.53;;
13303;SDS011;6720;51.958;4.540;2023-05-14T07:06:50;38.90;;;32.80;;
13303;SDS011;6720;51.958;4.540;2023-05-14T07:09:16;39.47;;;32.27;;
13303;SDS011;6720;51.958;4.540;2023-05-14T07:11:41;34.20;;;30.50;;
13303;SDS011;6720;51.958;4.540;2023-05-14T07:14:07;41.00;;;32.43;;
13303;SDS011;6720;51.958;4.540;2023-05-14T07:16:32;38.97;;;32.40;;
13303;SDS011;6720;51.958;4.540;2023-05-14T07:18:57;38.43;;;32.27;;
13303;SDS011;6720;51.958;4.540;2023-05-14T07:21:23;37.83;;;31.03;;
13303;SDS011;6720;51.958;4.540;2023-05-14T07:23:48;35.77;;;31.10;;
13303;SDS011;6720;51.958;4.540;2023-05-14T07:26:15;37.23;;;30.70;;
13303;SDS011;6720;51.958;4.540;2023-05-14T07:28:40;36.80;;;31.53;;
13303;SDS011;6720;51.958;4.540;2023-05-14T07:31:05;36.70;;;31.27;;
13303;SDS011;6720;51.958;4.540;2023-05-14T07:33:32;36.47;;;29.70;;
13303;SDS011;6720;51.958;4.540;2023-05-14T07:36:01;35.77;;;28.70;;
13303;SDS011;6720;51.958;4.540;2023-05-14T07:38:26;35.23;;;27.60;;
13303;SDS011;6720;51.958;4.540;2023-05-14T07:40:52;33.10;;;28.77;;
13303;SDS011;6720;51.958;4.540;2023-05-14T07:43:18;30.30;;;27.10;;
13303;SDS011;6720;51.958;4.540;2023-05-14T07:45:43;29.70;;;26.63;;
13303;SDS011;6720;51.958;4.540;2023-05-14T07:48:09;34.00;;;28.50;;
13303;SDS011;6720;51.958;4.540;2023-05-14T07:50:35;29.87;;;26.67;;
13303;SDS011;6720;51.958;4.540;2023-05-14T07:53:01;30.40;;;27.13;;
13303;SDS011;6720;51.958;4.540;2023-05-14T07:55:26;33.13;;;27.10;;
13303;SDS011;6720;51.958;4.540;2023-05-14T07:57:51;29.03;;;25.73;;
13303;SDS011;6720;51.958;4.540;2023-05-14T08:00:17;31.23;;;26.17;;
13303;SDS011;6720;51.958;4.540;2023-05-14T08:02:43;30.43;;;26.30;;
13303;SDS011;6720;51.958;4.540;2023-05-14T08:05:09;30.43;;;25.50;;
13303;SDS011;6720;51.958;4.540;2023-05-14T08:07:35;30.37;;;26.50;;
13303;SDS011;6720;51.958;4.540;2023-05-14T08:10:00;29.60;;;25.70;;
13303;SDS011;6720;51.958;4.540;2023-05-14T08:12:26;30.37;;;24.57;;
13303;SDS011;6720;51.958;4.540;2023-05-14T08:14:52;33.30;;;26.63;;
13303;SDS011;6720;51.958;4.540;2023-05-14T08:17:18;31.27;;;26.77;;
13303;SDS011;6720;51.958;4.540;2023-05-14T08:19:43;29.63;;;26.03;;
13303;SDS011;6720;51.958;4.540;2023-05-14T08:22:08;27.10;;;24.20;;
13303;SDS011;6720;51.958;4.540;2023-05-14T08:24:34;33.73;;;28.10;;
13303;SDS011;6720;51.958;4.540;2023-05-14T08:26:59;28.13;;;23.77;;
13303;SDS011;6720;51.958;4.540;2023-05-14T08:29:26;33.17;;;27.50;;
13303;SDS011;6720;51.958;4.540;2023-05-14T08:31:51;29.63;;;25.67;;
13303;SDS011;6720;51.958;4.540;2023-05-14T08:34:17;33.00;;;26.33;;
13303;SDS011;6720;51.958;4.540;2023-05-14T08:36:42;30.43;;;25.30;;
13303;SDS011;6720;51.958;4.540;2023-05-14T08:39:08;33.70;;;25.03;;
13303;SDS011;6720;51.958;4.540;2023-05-14T08:41:33;89.27;;;63.53;;
13303;SDS011;6720;51.958;4.540;2023-05-14T08:44:06;30.87;;;26.17;;
13303;SDS011;6720;51.958;4.540;2023-05-14T08:46:36;26.83;;;21.30;;
13303;SDS011;6720;51.958;4.540;2023-05-14T08:51:50;27.40;;;23.83;;
13303;SDS011;6720;51.958;4.540;2023-05-14T08:54:16;20.40;;;15.93;;
13303;SDS011;6720;51.958;4.540;2023-05-14T08:56:42;17.83;;;14.90;;
13303;SDS011;6720;51.958;4.540;2023-05-14T08:59:10;28.17;;;21.70;;
13303;SDS011;6720;51.958;4.540;2023-05-14T09:01:36;21.87;;;18.00;;
13303;SDS011;6720;51.958;4.540;2023-05-14T09:04:03;16.30;;;13.80;;
13303;SDS011;6720;51.958;4.540;2023-05-14T09:06:32;22.27;;;17.17;;
13303;SDS011;6720;51.958;4.540;2023-05-14T09:09:00;16.97;;;14.40;;
13303;SDS011;6720;51.958;4.540;2023-05-14T09:11:26;15.00;;;13.53;;
13303;SDS011;6720;51.958;4.540;2023-05-14T09:13:51;16.53;;;13.67;;
13303;SDS011;6720;51.958;4.540;2023-05-14T09:16:17;18.63;;;14.80;;
13303;SDS011;6720;51.958;4.540;2023-05-14T09:18:44;17.90;;;13.63;;
13303;SDS011;6720;51.958;4.540;2023-05-14T09:21:09;15.90;;;13.20;;
13303;SDS011;6720;51.958;4.540;2023-05-14T09:23:40;16.07;;;13.40;;
13303;SDS011;6720;51.958;4.540;2023-05-14T09:26:07;17.93;;;13.20;;
13303;SDS011;6720;51.958;4.540;2023-05-14T09:28:32;14.63;;;12.53;;
13303;SDS011;6720;51.958;4.540;2023-05-14T09:30:58;15.93;;;13.10;;
13303;SDS011;6720;51.958;4.540;2023-05-14T09:33:26;16.33;;;14.63;;
13303;SDS011;6720;51.958;4.540;2023-05-14T09:35:54;20.47;;;14.20;;
13303;SDS011;6720;51.958;4.540;2023-05-14T09:38:26;15.37;;;13.10;;
13303;SDS011;6720;51.958;4.540;2023-05-14T09:40:56;20.13;;;16.30;;
13303;SDS011;6720;51.958;4.540;2023-05-14T09:43:22;16.30;;;13.07;;
13303;SDS011;6720;51.958;4.540;2023-05-14T09:45:47;14.10;;;12.63;;
13303;SDS011;6720;51.958;4.540;2023-05-14T09:48:13;14.23;;;12.33;;
13303;SDS011;6720;51.958;4.540;2023-05-14T09:50:44;19.23;;;15.93;;
13303;SDS011;6720;51.958;4.540;2023-05-14T09:53:11;18.10;;;15.87;;
13303;SDS011;6720;51.958;4.540;2023-05-14T09:55:38;22.17;;;18.37;;
13303;SDS011;6720;51.958;4.540;2023-05-14T09:58:03;17.53;;;11.80;;
13303;SDS011;6720;51.958;4.540;2023-05-14T10:00:33;16.13;;;14.13;;
13303;SDS011;6720;51.958;4.540;2023-05-14T10:03:02;18.30;;;14.23;;
13303;SDS011;6720;51.958;4.540;2023-05-14T10:05:30;18.40;;;13.00;;
13303;SDS011;6720;51.958;4.540;2023-05-14T10:07:59;14.60;;;11.07;;
13303;SDS011;6720;51.958;4.540;2023-05-14T10:10:28;15.30;;;10.83;;
13303;SDS011;6720;51.958;4.540;2023-05-14T10:12:59;20.33;;;13.70;;
13303;SDS011;6720;51.958;4.540;2023-05-14T10:15:39;16.73;;;11.20;;
13303;SDS011;6720;51.958;4.540;2023-05-14T10:18:11;23.03;;;16.33;;
13303;SDS011;6720;51.958;4.540;2023-05-14T10:20:41;20.67;;;15.33;;
13303;SDS011;6720;51.958;4.540;2023-05-14T10:23:08;19.90;;;16.30;;
13303;SDS011;6720;51.958;4.540;2023-05-14T10:25:33;14.70;;;10.97;;
13303;SDS011;6720;51.958;4.540;2023-05-14T10:28:00;19.47;;;15.43;;
13303;SDS011;6720;51.958;4.540;2023-05-14T10:30:26;17.47;;;11.50;;
13303;SDS011;6720;51.958;4.540;2023-05-14T10:33:04;15.07;;;11.47;;
13303;SDS011;6720;51.958;4.540;2023-05-14T10:35:31;13.07;;;10.10;;
13303;SDS011;6720;51.958;4.540;2023-05-14T10:38:15;12.57;;;10.27;;
13303;SDS011;6720;51.958;4.540;2023-05-14T10:40:41;16.23;;;11.50;;
13303;SDS011;6720;51.958;4.540;2023-05-14T10:43:06;17.80;;;14.30;;
13303;SDS011;6720;51.958;4.540;2023-05-14T10:45:33;16.37;;;11.03;;
13303;SDS011;6720;51.958;4.540;2023-05-14T10:48:00;18.13;;;10.37;;
13303;SDS011;6720;51.958;4.540;2023-05-14T10:50:25;18.93;;;14.07;;
13303;SDS011;6720;51.958;4.540;2023-05-14T10:52:51;17.93;;;12.23;;
13303;SDS011;6720;51.958;4.540;2023-05-14T10:55:16;18.77;;;12.53;;
13303;SDS011;6720;51.958;4.540;2023-05-14T10:57:43;14.97;;;10.03;;
13303;SDS011;6720;51.958;4.540;2023-05-14T11:00:10;16.13;;;11.40;;
13303;SDS011;6720;51.958;4.540;2023-05-14T11:02:41;19.43;;;11.13;;
13303;SDS011;6720;51.958;4.540;2023-05-14T11:05:09;16.33;;;12.37;;
13303;SDS011;6720;51.958;4.540;2023-05-14T11:07:38;17.67;;;11.80;;
13303;SDS011;6720;51.958;4.540;2023-05-14T11:10:06;16.97;;;11.10;;
13303;SDS011;6720;51.958;4.540;2023-05-14T11:12:33;21.80;;;17.70;;
13303;SDS011;6720;51.958;4.540;2023-05-14T11:15:04;22.07;;;17.83;;
13303;SDS011;6720;51.958;4.540;2023-05-14T11:17:31;14.60;;;10.40;;
13303;SDS011;6720;51.958;4.540;2023-05-14T11:19:57;17.90;;;12.33;;
13303;SDS011;6720;51.958;4.540;2023-05-14T11:22:23;15.87;;;11.83;;
13303;SDS011;6720;51.958;4.540;2023-05-14T11:24:49;11.63;;;10.43;;
13303;SDS011;6720;51.958;4.540;2023-05-14T11:27:15;16.53;;;11.93;;
13303;SDS011;6720;51.958;4.540;2023-05-14T11:29:42;22.97;;;14.43;;
13303;SDS011;6720;51.958;4.540;2023-05-14T11:32:09;15.37;;;11.53;;
13303;SDS011;6720;51.958;4.540;2023-05-14T11:34:35;16.00;;;12.07;;
13303;SDS011;6720;51.958;4.540;2023-05-14T11:37:04;21.90;;;15.53;;
13303;SDS011;6720;51.958;4.540;2023-05-14T11:39:31;20.53;;;14.47;;
13303;SDS011;6720;51.958;4.540;2023-05-14T11:42:01;14.03;;;10.67;;
13303;SDS011;6720;51.958;4.540;2023-05-14T11:44:28;16.70;;;10.53;;
13303;SDS011;6720;51.958;4.540;2023-05-14T11:46:56;13.90;;;9.87;;
13303;SDS011;6720;51.958;4.540;2023-05-14T11:49:23;13.03;;;9.30;;
13303;SDS011;6720;51.958;4.540;2023-05-14T11:51:55;15.90;;;9.80;;
13303;SDS011;6720;51.958;4.540;2023-05-14T11:54:23;14.00;;;9.03;;
13303;SDS011;6720;51.958;4.540;2023-05-14T11:56:50;16.00;;;11.13;;
13303;SDS011;6720;51.958;4.540;2023-05-14T11:59:15;18.27;;;13.80;;
13303;SDS011;6720;51.958;4.540;2023-05-14T12:01:43;19.77;;;13.03;;
13303;SDS011;6720;51.958;4.540;2023-05-14T12:04:09;16.50;;;10.20;;
13303;SDS011;6720;51.958;4.540;2023-05-14T12:06:34;16.33;;;12.70;;
13303;SDS011;6720;51.958;4.540;2023-05-14T12:09:00;14.50;;;12.67;;
13303;SDS011;6720;51.958;4.540;2023-05-14T12:11:29;19.13;;;12.37;;
13303;SDS011;6720;51.958;4.540;2023-05-14T12:13:56;14.37;;;9.57;;
13303;SDS011;6720;51.958;4.540;2023-05-14T12:16:21;14.03;;;11.43;;
13303;SDS011;6720;51.958;4.540;2023-05-14T12:18:47;13.17;;;9.67;;
13303;SDS011;6720;51.958;4.540;2023-05-14T12:21:12;11.00;;;9.37;;
13303;SDS011;6720;51.958;4.540;2023-05-14T12:23:38;17.17;;;11.40;;
13303;SDS011;6720;51.958;4.540;2023-05-14T12:26:07;18.37;;;13.97;;
13303;SDS011;6720;51.958;4.540;2023-05-14T12:28:33;14.67;;;9.53;;
13303;SDS011;6720;51.958;4.540;2023-05-14T12:31:00;16.17;;;9.50;;
13303;SDS011;6720;51.958;4.540;2023-05-14T12:33:26;11.67;;;8.63;;
13303;SDS011;6720;51.958;4.540;2023-05-14T12:35:52;10.23;;;7.87;;
13303;SDS011;6720;51.958;4.540;2023-05-14T12:38:18;14.43;;;8.90;;
13303;SDS011;6720;51.958;4.540;2023-05-14T12:40:44;13.53;;;8.27;;
13303;SDS011;6720;51.958;4.540;2023-05-14T12:43:11;10.67;;;8.03;;
13303;SDS011;6720;51.958;4.540;2023-05-14T12:45:37;11.40;;;8.00;;
13303;SDS011;6720;51.958;4.540;2023-05-14T12:48:05;10.97;;;8.43;;
13303;SDS011;6720;51.958;4.540;2023-05-14T12:50:30;11.93;;;7.70;;
13303;SDS011;6720;51.958;4.540;2023-05-14T12:52:56;12.67;;;8.13;;
13303;SDS011;6720;51.958;4.540;2023-05-14T12:55:22;11.00;;;7.90;;
13303;SDS011;6720;51.958;4.540;2023-05-14T12:57:47;11.37;;;8.47;;
13303;SDS011;6720;51.958;4.540;2023-05-14T13:00:13;13.43;;;8.10;;
13303;SDS011;6720;51.958;4.540;2023-05-14T13:02:39;10.47;;;7.57;;
13303;SDS011;6720;51.958;4.540;2023-05-14T13:05:05;10.90;;;7.30;;
13303;SDS011;6720;51.958;4.540;2023-05-14T13:07:32;10.53;;;9.33;;
13303;SDS011;6720;51.958;4.540;2023-05-14T13:09:57;14.93;;;9.13;;
13303;SDS011;6720;51.958;4.540;2023-05-14T13:12:23;11.57;;;8.73;;
13303;SDS011;6720;51.958;4.540;2023-05-14T13:14:48;13.37;;;7.73;;
13303;SDS011;6720;51.958;4.540;2023-05-14T13:17:14;10.53;;;7.70;;
13303;SDS011;6720;51.958;4.540;2023-05-14T13:19:39;11.70;;;8.57;;
13303;SDS011;6720;51.958;4.540;2023-05-14T13:22:05;12.20;;;8.40;;
13303;SDS011;6720;51.958;4.540;2023-05-14T13:24:31;11.77;;;8.00;;
13303;SDS011;6720;51.958;4.540;2023-05-14T13:26:56;11.77;;;8.17;;
13303;SDS011;6720;51.958;4.540;2023-05-14T13:29:22;11.93;;;8.80;;
13303;SDS011;6720;51.958;4.540;2023-05-14T13:31:47;14.03;;;8.40;;
13303;SDS011;6720;51.958;4.540;2023-05-14T13:34:13;11.57;;;7.63;;
13303;SDS011;6720;51.958;4.540;2023-05-14T13:36:41;11.23;;;7.97;;
13303;SDS011;6720;51.958;4.540;2023-05-14T13:39:15;10.53;;;8.00;;
13303;SDS011;6720;51.958;4.540;2023-05-14T13:41:46;9.43;;;7.67;;
13303;SDS011;6720;51.958;4.540;2023-05-14T13:44:14;12.83;;;7.70;;
13303;SDS011;6720;51.958;4.540;2023-05-14T13:46:40;11.03;;;7.63;;
13303;SDS011;6720;51.958;4.540;2023-05-14T13:49:05;11.70;;;7.97;;
13303;SDS011;6720;51.958;4.540;2023-05-14T13:51:31;14.10;;;8.67;;
13303;SDS011;6720;51.958;4.540;2023-05-14T13:53:56;11.20;;;8.20;;
13303;SDS011;6720;51.958;4.540;2023-05-14T13:56:21;11.70;;;7.43;;
13303;SDS011;6720;51.958;4.540;2023-05-14T13:58:47;13.20;;;8.07;;
13303;SDS011;6720;51.958;4.540;2023-05-14T14:01:13;15.03;;;10.13;;
13303;SDS011;6720;51.958;4.540;2023-05-14T14:03:38;21.33;;;16.53;;
13303;SDS011;6720;51.958;4.540;2023-05-14T14:06:04;12.30;;;9.00;;
13303;SDS011;6720;51.958;4.540;2023-05-14T14:08:29;14.00;;;12.17;;
13303;SDS011;6720;51.958;4.540;2023-05-14T14:10:55;19.17;;;14.40;;
13303;SDS011;6720;51.958;4.540;2023-05-14T14:13:20;12.43;;;9.00;;
13303;SDS011;6720;51.958;4.540;2023-05-14T14:15:46;11.40;;;9.47;;
13303;SDS011;6720;51.958;4.540;2023-05-14T14:18:12;14.63;;;11.87;;
13303;SDS011;6720;51.958;4.540;2023-05-14T14:20:37;13.13;;;10.73;;
13303;SDS011;6720;51.958;4.540;2023-05-14T14:23:03;11.93;;;9.03;;
13303;SDS011;6720;51.958;4.540;2023-05-14T14:25:28;15.27;;;10.23;;
13303;SDS011;6720;51.958;4.540;2023-05-14T14:27:54;13.50;;;8.70;;
13303;SDS011;6720;51.958;4.540;2023-05-14T14:30:19;13.77;;;10.33;;
13303;SDS011;6720;51.958;4.540;2023-05-14T14:32:45;15.33;;;10.70;;
13303;SDS011;6720;51.958;4.540;2023-05-14T14:35:12;12.33;;;9.47;;
13303;SDS011;6720;51.958;4.540;2023-05-14T14:37:39;11.93;;;9.10;;
13303;SDS011;6720;51.958;4.540;2023-05-14T14:40:06;14.70;;;10.83;;